createdAt,value
2019-02-06T13:14:49.529Z,33.90
2019-02-06T13:17:16.941Z,28.60
2019-02-06T13:19:44.339Z,26.40
2019-02-06T13:22:11.747Z,25.50
2019-02-06T13:24:39.341Z,25.10
2019-02-06T13:27:07.229Z,24.90
2019-02-06T13:29:34.630Z,24.80
2019-02-06T13:32:02.178Z,24.80
2019-02-06T13:34:29.574Z,24.70
2019-02-06T13:36:56.986Z,24.70
2019-02-06T13:39:24.386Z,24.70
2019-02-06T13:41:51.798Z,24.80
2019-02-06T13:44:19.766Z,24.70
2019-02-06T13:46:53.279Z,24.80
2019-02-06T13:49:16.393Z,24.70
2019-02-06T13:51:43.993Z,24.80
2019-02-06T13:54:11.390Z,24.80
2019-02-06T13:56:38.802Z,24.70
2019-02-06T13:59:07.411Z,24.70
2019-02-06T14:01:35.239Z,24.70
2019-02-06T14:04:02.812Z,24.70
2019-02-06T14:06:30.230Z,24.70
2019-02-06T14:08:57.731Z,24.70
2019-02-06T14:11:25.142Z,24.80
2019-02-06T14:13:52.563Z,24.80
2019-02-06T14:16:20.026Z,24.80
2019-02-06T14:18:47.795Z,24.70
2019-02-06T14:21:15.195Z,24.80
2019-02-06T14:23:48.495Z,24.80
2019-02-06T14:26:23.654Z,24.80
2019-02-06T14:29:06.282Z,24.60
2019-02-06T14:31:54.829Z,24.50
2019-02-06T14:34:46.311Z,24.40
2019-02-06T14:37:16.982Z,24.40
2019-02-06T14:39:52.786Z,24.30
2019-02-06T14:42:31.761Z,24.30
2019-02-06T14:45:17.638Z,24.20
2019-02-06T14:48:00.226Z,24.10
2019-02-06T14:50:42.893Z,24.10
2019-02-06T14:53:16.754Z,24.00
2019-02-06T14:55:55.982Z,24.00
2019-02-06T14:58:29.258Z,23.80
2019-02-06T15:01:01.386Z,23.90
2019-02-06T15:03:35.073Z,23.80
2019-02-06T15:06:26.510Z,23.80
2019-02-06T15:09:00.105Z,23.70
2019-02-06T15:11:43.353Z,23.60
2019-02-06T15:14:20.011Z,23.50
2019-02-06T15:22:30.682Z,23.70
2019-02-06T15:25:01.350Z,23.60
2019-02-06T15:27:46.786Z,23.70
2019-02-06T15:30:25.597Z,23.70
2019-02-06T15:33:11.280Z,23.90
2019-02-06T15:36:02.973Z,24.00
2019-02-06T15:38:48.581Z,24.00
2019-02-06T15:41:34.419Z,24.10
2019-02-06T15:44:08.038Z,24.20
2019-02-06T15:46:53.618Z,24.10
2019-02-06T15:49:24.557Z,24.10
2019-02-06T15:52:12.811Z,24.10
2019-02-06T15:55:04.275Z,24.10
2019-02-06T15:57:37.715Z,24.10
2019-02-06T16:00:13.925Z,24.10
2019-02-06T16:02:50.562Z,24.10
2019-02-06T16:05:26.756Z,24.10
2019-02-06T16:08:00.310Z,24.20
2019-02-06T16:10:47.302Z,24.20
2019-02-06T16:13:20.598Z,24.30
2019-02-06T16:16:18.695Z,24.30
2019-02-06T16:19:01.283Z,24.20
2019-02-06T16:21:35.111Z,24.20
2019-02-06T16:24:05.774Z,24.20
2019-02-06T16:26:57.589Z,24.20
2019-02-06T16:30:02.730Z,24.30
2019-02-06T16:32:33.384Z,24.30
2019-02-06T16:35:12.751Z,24.20
2019-02-06T16:37:55.143Z,24.20
2019-02-06T16:40:54.826Z,24.20
2019-02-06T16:43:34.399Z,24.10
2019-02-06T16:46:23.038Z,24.10
2019-02-06T16:48:53.685Z,24.10
2019-02-06T16:51:24.830Z,24.20
2019-02-06T16:54:01.420Z,24.20
2019-02-06T16:56:48.678Z,24.20
2019-02-06T16:59:24.820Z,24.20
2019-02-06T17:02:17.635Z,24.20
2019-02-06T17:04:54.312Z,24.20
2019-02-06T17:07:25.445Z,24.20
2019-02-06T17:10:08.151Z,24.20
2019-02-06T17:12:53.540Z,24.20
2019-02-06T17:15:50.074Z,24.10
2019-02-06T17:18:20.725Z,24.10
2019-02-06T17:21:13.598Z,24.10
2019-02-06T17:23:56.183Z,24.10
2019-02-06T17:26:32.610Z,24.10
2019-02-06T17:29:08.503Z,24.20
2019-02-06T17:32:01.640Z,24.20
2019-02-06T17:34:47.343Z,24.20
2019-02-06T17:37:37.298Z,24.10
2019-02-06T17:40:10.878Z,24.20
2019-02-06T17:42:50.183Z,24.10
2019-02-06T17:45:26.314Z,24.10
2019-02-06T17:48:02.513Z,24.20
2019-02-06T17:50:57.248Z,24.10
2019-02-06T17:53:32.993Z,24.20
2019-02-06T17:56:00.407Z,24.00
2019-02-06T17:58:30.638Z,24.10
2019-02-06T18:01:01.558Z,24.10
2019-02-06T18:03:32.289Z,24.10
2019-02-06T18:05:59.697Z,24.20
2019-02-06T18:08:27.173Z,24.20
2019-02-06T18:10:54.618Z,24.20
2019-02-06T18:13:22.014Z,24.20
2019-02-06T18:15:49.435Z,24.30
2019-02-06T18:18:16.906Z,24.30
2019-02-06T18:20:44.771Z,24.20
2019-02-06T18:23:12.185Z,24.20
2019-02-06T18:25:39.717Z,24.30
2019-02-06T18:28:07.351Z,24.30
2019-02-06T18:30:34.846Z,24.30
2019-02-06T18:33:02.314Z,24.30
2019-02-06T18:35:29.834Z,24.30
2019-02-06T18:37:57.285Z,24.30
2019-02-06T18:40:25.942Z,24.30
2019-02-06T18:42:54.130Z,24.40
2019-02-06T18:45:22.750Z,24.30
2019-02-06T18:47:53.638Z,24.30
2019-02-06T18:50:23.600Z,24.30
